createdAt,value
2023-04-22T00:01:19.388Z,101026.38
2023-04-22T00:03:46.013Z,101026.31
2023-04-22T00:06:13.734Z,101030.25
2023-04-22T00:08:40.225Z,101025.66
2023-04-22T00:11:06.682Z,101016.00
2023-04-22T00:13:33.439Z,101014.00
2023-04-22T00:16:00.024Z,101016.56
2023-04-22T00:18:26.789Z,101011.72
2023-04-22T00:20:53.422Z,101013.03
2023-04-22T00:23:19.868Z,101004.44
2023-04-22T00:25:46.371Z,101000.41
2023-04-22T00:28:12.722Z,101007.06
2023-04-22T00:30:39.213Z,101010.69
2023-04-22T00:33:05.851Z,101015.88
2023-04-22T00:35:32.254Z,101007.06
2023-04-22T00:37:59.254Z,101017.41
2023-04-22T00:40:25.676Z,101011.19
2023-04-22T00:42:52.138Z,101013.06
2023-04-22T00:45:20.884Z,101003.91
2023-04-22T00:47:48.635Z,101009.72
2023-04-22T00:50:15.990Z,101008.63
2023-04-22T00:52:42.332Z,101015.47
2023-04-22T00:55:09.479Z,101023.94
2023-04-22T00:57:36.973Z,101014.81
2023-04-22T01:00:05.294Z,101015.78
2023-04-22T01:02:32.210Z,101018.66
2023-04-22T01:04:59.648Z,101019.16
2023-04-22T01:07:26.162Z,101023.59
2023-04-22T01:09:52.566Z,101023.97
2023-04-22T01:12:18.989Z,101017.19
2023-04-22T01:14:45.829Z,101019.97
2023-04-22T01:17:13.877Z,101026.03
2023-04-22T01:19:41.605Z,101017.13
2023-04-22T01:22:11.683Z,101019.72
2023-04-22T01:24:38.174Z,101024.69
2023-04-22T01:27:04.638Z,101029.69
2023-04-22T01:29:31.820Z,101025.66
2023-04-22T01:31:58.419Z,101035.72
2023-04-22T01:34:25.063Z,101016.88
2023-04-22T01:36:51.469Z,101014.56
2023-04-22T01:39:18.197Z,101020.16
2023-04-22T01:41:44.693Z,101027.69
2023-04-22T01:44:11.158Z,101022.03
2023-04-22T01:46:37.722Z,101027.19
2023-04-22T01:49:04.681Z,101019.13
2023-04-22T01:51:31.636Z,101015.31
2023-04-22T01:53:58.103Z,101022.50
2023-04-22T01:56:24.554Z,101013.22
2023-04-22T01:58:51.073Z,101020.97
2023-04-22T02:01:17.523Z,101017.50
2023-04-22T02:03:44.237Z,101018.75
2023-04-22T02:06:10.881Z,101018.41
2023-04-22T02:08:38.275Z,101017.75
2023-04-22T02:11:04.725Z,101017.63
2023-04-22T02:13:35.918Z,101014.03
2023-04-22T02:16:02.591Z,101010.00
2023-04-22T02:18:29.003Z,101012.88
2023-04-22T02:20:55.415Z,101015.19
2023-04-22T02:23:22.198Z,101010.72
2023-04-22T02:25:50.413Z,101009.88
2023-04-22T02:28:16.913Z,101013.25
2023-04-22T02:30:43.403Z,101008.16
2023-04-22T02:33:09.853Z,101005.50
2023-04-22T02:35:36.229Z,101003.41
2023-04-22T02:38:02.833Z,100996.25
2023-04-22T02:40:29.278Z,100992.31
2023-04-22T02:42:56.188Z,100996.38
2023-04-22T02:45:22.710Z,100995.09
2023-04-22T02:47:49.118Z,101001.00
2023-04-22T02:50:15.534Z,100993.22
2023-04-22T02:52:41.949Z,100990.56
2023-04-22T02:55:08.867Z,100989.19
2023-04-22T02:57:35.394Z,100993.34
2023-04-22T03:00:01.934Z,100993.59
2023-04-22T03:02:28.489Z,100988.84
2023-04-22T03:04:54.906Z,100985.84
2023-04-22T03:07:21.366Z,100985.72
2023-04-22T03:09:47.803Z,100977.75
2023-04-22T03:12:14.118Z,100981.78
2023-04-22T03:14:40.428Z,100982.81
2023-04-22T03:17:06.751Z,100981.56
2023-04-22T03:19:33.175Z,100981.66
2023-04-22T03:21:59.557Z,100973.22
2023-04-22T03:24:26.247Z,100972.78
2023-04-22T03:26:52.626Z,100969.66
2023-04-22T03:29:18.949Z,100972.78
2023-04-22T03:31:45.442Z,100972.66
2023-04-22T03:34:11.895Z,100972.31
2023-04-22T03:36:38.250Z,100962.94
2023-04-22T03:39:05.107Z,100964.78
2023-04-22T03:41:31.464Z,100958.09
2023-04-22T03:44:00.225Z,100960.50
2023-04-22T03:46:28.099Z,100957.63
2023-04-22T03:48:54.544Z,100956.09
2023-04-22T03:51:20.910Z,100946.03
2023-04-22T03:53:47.245Z,100949.88
2023-04-22T03:56:13.606Z,100946.75
2023-04-22T03:58:40.003Z,100949.75
2023-04-22T04:01:06.601Z,100938.63
2023-04-22T04:03:33.323Z,100940.00
2023-04-22T04:05:59.995Z,100937.34
2023-04-22T04:08:26.716Z,100927.75
2023-04-22T04:10:53.144Z,100926.13
2023-04-22T04:13:19.521Z,100934.38
2023-04-22T04:15:46.056Z,100920.94
2023-04-22T04:18:13.605Z,100920.94
2023-04-22T04:20:40.049Z,100922.09
2023-04-22T04:23:06.479Z,100921.28
2023-04-22T04:25:38.214Z,100914.69
2023-04-22T04:28:09.246Z,100913.16
2023-04-22T04:30:36.677Z,100914.00
2023-04-22T04:33:07.268Z,100919.31
2023-04-22T04:35:35.432Z,100918.28
2023-04-22T04:38:02.253Z,100914.00
2023-04-22T04:40:29.728Z,100918.50
2023-04-22T04:42:57.420Z,100926.25
2023-04-22T04:45:24.890Z,100934.22
2023-04-22T04:47:54.999Z,100928.91
2023-04-22T04:50:22.586Z,100920.94
2023-04-22T04:52:49.198Z,100905.75
2023-04-22T04:55:16.476Z,100907.97
2023-04-22T04:57:46.084Z,100896.03
2023-04-22T05:00:14.040Z,100900.31
2023-04-22T05:02:40.960Z,100899.84
2023-04-22T05:05:08.580Z,100902.03
2023-04-22T05:07:35.400Z,100903.16
2023-04-22T05:10:03.228Z,100902.94
2023-04-22T05:12:29.631Z,100896.34
2023-04-22T05:14:55.977Z,100910.47
2023-04-22T05:17:22.431Z,100911.03
2023-04-22T05:19:49.041Z,100909.78
2023-04-22T05:22:15.875Z,100911.16
2023-04-22T05:24:42.257Z,100904.78
2023-04-22T05:27:09.152Z,100919.25
2023-04-22T05:29:35.991Z,100919.56
2023-04-22T05:32:02.361Z,100921.75
2023-04-22T05:34:28.720Z,100918.59
2023-04-22T05:36:55.192Z,100913.63
2023-04-22T05:39:21.507Z,100917.97
2023-04-22T05:41:47.907Z,100919.47
2023-04-22T05:44:14.329Z,100917.22
2023-04-22T05:46:40.753Z,100924.47
2023-04-22T05:49:07.127Z,100916.59
2023-04-22T05:51:33.511Z,100932.41
2023-04-22T05:53:59.944Z,100928.19
2023-04-22T05:56:26.562Z,100924.81
2023-04-22T05:58:52.958Z,100924.34
2023-04-22T06:01:19.340Z,100919.59
2023-04-22T06:03:45.876Z,100913.28
2023-04-22T06:06:12.484Z,100915.81
2023-04-22T06:08:38.826Z,100914.81
2023-04-22T06:11:05.233Z,100919.41
2023-04-22T06:13:31.680Z,100918.69
2023-04-22T06:15:58.258Z,100917.72
2023-04-22T06:18:26.472Z,100904.78
2023-04-22T06:20:53.981Z,100910.25
2023-04-22T06:23:20.517Z,100913.31
2023-04-22T06:25:47.437Z,100902.75
2023-04-22T06:28:13.773Z,100901.59
2023-04-22T06:30:40.314Z,100885.22
2023-04-22T06:33:06.691Z,100890.41
2023-04-22T06:35:33.196Z,100893.25
2023-04-22T06:37:59.624Z,100894.47
2023-04-22T06:40:26.135Z,100885.53
2023-04-22T06:42:52.474Z,100888.31
2023-04-22T06:45:20.521Z,100879.84
2023-04-22T06:47:47.305Z,100873.28
2023-04-22T06:50:13.848Z,100865.38
2023-04-22T06:52:40.229Z,100869.72
2023-04-22T06:55:06.927Z,100865.16
2023-04-22T06:57:33.333Z,100864.94
2023-04-22T06:59:59.867Z,100869.00
2023-04-22T07:02:26.319Z,100859.72
2023-04-22T07:04:52.912Z,100863.22
2023-04-22T07:07:19.329Z,100850.75
2023-04-22T07:09:45.724Z,100848.34
2023-04-22T07:12:12.228Z,100847.56
2023-04-22T07:14:42.885Z,100845.44
2023-04-22T07:17:09.304Z,100851.63
2023-04-22T07:19:35.704Z,100859.97
2023-04-22T07:22:03.340Z,100861.06
2023-04-22T07:24:30.348Z,100853.84
2023-04-22T07:26:56.885Z,100853.56
2023-04-22T07:29:23.346Z,100859.47
2023-04-22T07:31:49.790Z,100856.53
2023-04-22T07:34:17.321Z,100852.53
2023-04-22T07:36:43.938Z,100857.09
2023-04-22T07:39:10.361Z,100856.03
2023-04-22T07:41:36.705Z,100831.34
2023-04-22T07:44:03.519Z,100841.72
2023-04-22T07:46:30.149Z,100850.25
2023-04-22T07:48:56.537Z,100859.63
2023-04-22T07:51:22.881Z,100854.97
2023-04-22T07:53:49.313Z,100851.16
2023-04-22T07:56:15.706Z,100866.66
2023-04-22T07:58:42.131Z,100858.28
2023-04-22T08:01:08.491Z,100867.53
2023-04-22T08:03:35.063Z,100860.31
2023-04-22T08:06:01.629Z,100867.00
2023-04-22T08:08:28.014Z,100871.03
2023-04-22T08:10:54.380Z,100873.56
2023-04-22T08:13:20.776Z,100863.19
2023-04-22T08:15:47.249Z,100850.38
2023-04-22T08:18:13.726Z,100849.81
2023-04-22T08:20:40.095Z,100836.00
2023-04-22T08:23:07.026Z,100827.72
2023-04-22T08:25:34.964Z,100834.28
2023-04-22T08:28:01.348Z,100832.00
2023-04-22T08:30:27.716Z,100829.09
2023-04-22T08:32:54.211Z,100812.34
2023-04-22T08:35:20.626Z,100811.63
2023-04-22T08:37:47.106Z,100791.72
2023-04-22T08:40:13.486Z,100795.34
2023-04-22T08:42:40.320Z,100801.31
2023-04-22T08:45:07.068Z,100804.03
2023-04-22T08:47:34.973Z,100802.13
2023-04-22T08:50:06.237Z,100793.03
2023-04-22T08:52:33.127Z,100800.63
2023-04-22T08:54:59.890Z,100804.91
2023-04-22T08:57:27.165Z,100797.22
2023-04-22T08:59:55.427Z,100797.72
2023-04-22T09:02:24.360Z,100797.41
2023-04-22T09:04:53.915Z,100794.88
2023-04-22T09:07:38.823Z,100786.03
2023-04-22T09:10:06.120Z,100794.31
2023-04-22T09:12:32.517Z,100792.84
2023-04-22T09:14:58.962Z,100784.84
2023-04-22T09:17:33.591Z,100778.19
2023-04-22T09:20:06.026Z,100776.94
2023-04-22T09:22:47.830Z,100765.28
2023-04-22T09:25:18.603Z,100763.44
2023-04-22T09:27:52.269Z,100761.75
2023-04-22T09:30:24.282Z,100760.31
2023-04-22T09:32:53.984Z,100760.31
2023-04-22T09:35:27.611Z,100755.34
2023-04-22T09:37:54.859Z,100753.28
2023-04-22T09:40:21.629Z,100751.22
2023-04-22T09:42:51.054Z,100748.38
2023-04-22T09:45:33.671Z,100739.91
2023-04-22T09:48:06.321Z,100726.16
2023-04-22T09:50:32.719Z,100720.06
2023-04-22T09:53:01.619Z,100721.59
2023-04-22T09:55:30.260Z,100727.13
2023-04-22T09:57:57.863Z,100727.97
2023-04-22T10:00:29.740Z,100718.34
2023-04-22T10:02:56.250Z,100721.06
2023-04-22T10:05:22.663Z,100713.63
2023-04-22T10:07:49.120Z,100714.19
2023-04-22T10:10:15.596Z,100721.91
2023-04-22T10:12:42.719Z,100706.88
2023-04-22T10:15:09.541Z,100717.22
2023-04-22T10:17:39.722Z,100710.78
2023-04-22T10:20:13.550Z,100711.25
2023-04-22T10:22:42.792Z,100704.69
2023-04-22T10:25:23.221Z,100703.84
2023-04-22T10:28:10.591Z,100713.91
2023-04-22T10:30:38.903Z,100706.28
2023-04-22T10:33:20.692Z,100708.19
2023-04-22T10:36:08.254Z,100714.44
2023-04-22T10:38:35.981Z,100732.38
2023-04-22T10:41:03.925Z,100733.88
2023-04-22T10:43:47.536Z,100719.44
2023-04-22T10:46:37.425Z,100725.03
2023-04-22T10:49:08.110Z,100726.31
2023-04-22T10:51:45.034Z,100737.03
2023-04-22T10:54:28.788Z,100722.94
2023-04-22T10:57:02.086Z,100735.22
2023-04-22T10:59:29.606Z,100732.31
2023-04-22T11:02:03.758Z,100732.47
2023-04-22T11:04:30.337Z,100732.56
2023-04-22T11:07:20.288Z,100735.31
2023-04-22T11:09:50.629Z,100739.13
2023-04-22T11:12:38.541Z,100741.19
2023-04-22T11:15:06.666Z,100738.94
2023-04-22T11:17:34.022Z,100738.84
2023-04-22T11:20:01.395Z,100737.56
2023-04-22T11:22:27.855Z,100739.47
2023-04-22T11:24:55.774Z,100736.41
2023-04-22T11:27:26.443Z,100725.16
2023-04-22T11:30:14.904Z,100720.16
2023-04-22T11:32:49.687Z,100725.06
2023-04-22T11:35:19.899Z,100731.06
2023-04-22T11:37:51.045Z,100732.97
2023-04-22T11:42:49.530Z,100747.53
2023-04-22T11:45:16.263Z,100743.09
2023-04-22T11:47:43.297Z,100741.81
2023-04-22T11:50:12.180Z,100740.53
2023-04-22T11:52:45.184Z,100746.41
2023-04-22T11:55:23.695Z,100752.94
2023-04-22T11:58:10.437Z,100763.16
2023-04-22T12:00:38.173Z,100735.31
2023-04-22T12:03:08.163Z,100752.25
2023-04-22T12:05:34.885Z,100756.56
2023-04-22T12:08:03.496Z,100755.41
2023-04-22T12:10:30.393Z,100756.28
2023-04-22T12:12:56.760Z,100755.91
2023-04-22T12:15:23.220Z,100759.41
2023-04-22T12:17:50.669Z,100755.72
2023-04-22T12:20:17.126Z,100744.75
2023-04-22T12:22:43.465Z,100752.25
2023-04-22T12:25:10.537Z,100755.88
2023-04-22T12:27:36.907Z,100761.72
2023-04-22T12:30:04.080Z,100756.16
2023-04-22T12:32:30.566Z,100752.03
2023-04-22T12:34:56.973Z,100763.97
2023-04-22T12:37:23.367Z,100770.78
2023-04-22T12:39:49.818Z,100776.56
2023-04-22T12:42:16.152Z,100769.69
2023-04-22T12:44:43.490Z,100766.25
2023-04-22T12:47:09.951Z,100765.13
2023-04-22T12:49:38.187Z,100767.22
2023-04-22T12:52:04.879Z,100763.47
2023-04-22T12:54:31.328Z,100766.94
2023-04-22T12:56:58.659Z,100759.81
2023-04-22T12:59:25.043Z,100756.81
2023-04-22T13:01:51.414Z,100759.91
2023-04-22T13:04:19.133Z,100761.19
2023-04-22T13:06:45.583Z,100765.72
2023-04-22T13:09:12.868Z,100758.31
2023-04-22T13:11:39.216Z,100754.81
2023-04-22T13:14:05.611Z,100749.09
2023-04-22T13:16:32.037Z,100740.91
2023-04-22T13:18:58.475Z,100741.88
2023-04-22T13:21:24.865Z,100750.09
2023-04-22T13:23:51.273Z,100757.44
2023-04-22T13:26:17.651Z,100764.75
2023-04-22T13:28:44.058Z,100769.75
2023-04-22T13:31:10.481Z,100759.66
2023-04-22T13:33:36.897Z,100758.25
2023-04-22T13:36:03.373Z,100772.53
2023-04-22T13:38:29.791Z,100775.94
2023-04-22T13:40:56.230Z,100777.44
2023-04-22T13:43:23.096Z,100784.75
2023-04-22T13:45:49.608Z,100779.31
2023-04-22T13:48:16.222Z,100777.63
2023-04-22T13:50:43.040Z,100778.03
2023-04-22T13:53:10.933Z,100784.00
2023-04-22T13:55:38.006Z,100782.28
2023-04-22T13:58:06.229Z,100784.56
2023-04-22T14:00:34.262Z,100788.28
2023-04-22T14:03:01.299Z,100786.69
2023-04-22T14:05:27.969Z,100787.38
2023-04-22T14:07:54.491Z,100783.69
2023-04-22T14:10:22.060Z,100784.38
2023-04-22T14:12:49.495Z,100765.28
2023-04-22T14:15:15.998Z,100771.66
2023-04-22T14:17:42.548Z,100776.09
2023-04-22T14:20:11.113Z,100770.69
2023-04-22T14:22:37.687Z,100773.78
2023-04-22T14:25:04.300Z,100786.19
2023-04-22T14:27:30.934Z,100780.34
2023-04-22T14:29:58.421Z,100776.16
2023-04-22T14:32:25.755Z,100773.97
2023-04-22T14:34:52.326Z,100770.19
2023-04-22T14:37:18.761Z,100773.53
2023-04-22T14:39:45.331Z,100762.84
2023-04-22T14:42:11.749Z,100760.56
2023-04-22T14:44:38.132Z,100768.84
2023-04-22T14:47:04.746Z,100764.47
2023-04-22T14:49:33.186Z,100774.94
2023-04-22T14:52:01.123Z,100776.66
2023-04-22T14:54:28.039Z,100773.47
2023-04-22T14:56:55.923Z,100759.78
2023-04-22T14:59:22.423Z,100771.16
2023-04-22T15:01:48.974Z,100776.41
2023-04-22T15:04:16.475Z,100766.13
2023-04-22T15:06:42.909Z,100775.81
2023-04-22T15:09:09.431Z,100774.53
2023-04-22T15:11:35.894Z,100774.81
2023-04-22T15:14:02.529Z,100774.31
2023-04-22T15:16:30.079Z,100778.09
2023-04-22T15:18:56.945Z,100772.94
2023-04-22T15:21:23.300Z,100778.53
2023-04-22T15:23:49.645Z,100777.59
2023-04-22T15:26:16.393Z,100776.00
2023-04-22T15:28:42.748Z,100777.38
2023-04-22T15:31:09.160Z,100777.38
2023-04-22T15:33:35.530Z,100786.56
2023-04-22T15:36:04.009Z,100777.38
2023-04-22T15:38:30.438Z,100790.13
2023-04-22T15:40:56.775Z,100794.28
2023-04-22T15:43:23.204Z,100794.19
2023-04-22T15:45:49.615Z,100794.63
2023-04-22T15:48:16.098Z,100797.47
2023-04-22T15:50:42.491Z,100797.22
2023-04-22T15:53:09.126Z,100799.50
2023-04-22T15:55:35.738Z,100797.88
2023-04-22T15:58:02.623Z,100800.56
2023-04-22T16:00:28.972Z,100794.31
2023-04-22T16:02:56.002Z,100787.59
2023-04-22T16:05:24.557Z,100795.59
2023-04-22T16:07:52.816Z,100799.75
2023-04-22T16:10:19.251Z,100801.75
2023-04-22T16:12:45.594Z,100807.75
2023-04-22T16:15:11.994Z,100800.31
2023-04-22T16:17:38.502Z,100812.28
2023-04-22T16:20:06.076Z,100820.66
2023-04-22T16:22:32.493Z,100814.13
2023-04-22T16:24:58.800Z,100831.16
2023-04-22T16:27:25.491Z,100822.91
2023-04-22T16:29:51.853Z,100822.69
2023-04-22T16:32:18.224Z,100828.66
2023-04-22T16:34:44.648Z,100831.06
2023-04-22T16:37:10.990Z,100841.38
2023-04-22T16:39:37.451Z,100842.22
2023-04-22T16:42:03.867Z,100843.03
2023-04-22T16:44:30.266Z,100848.44
2023-04-22T16:46:56.667Z,100853.28
2023-04-22T16:49:23.153Z,100854.63
2023-04-22T16:51:49.676Z,100864.81
2023-04-22T16:54:16.049Z,100862.69
2023-04-22T16:56:42.369Z,100848.50
2023-04-22T16:59:08.747Z,100850.66
2023-04-22T17:01:35.335Z,100847.44
2023-04-22T17:04:02.011Z,100848.75
2023-04-22T17:06:28.627Z,100838.03
2023-04-22T17:08:55.093Z,100840.19
2023-04-22T17:11:21.988Z,100832.41
2023-04-22T17:13:48.392Z,100834.84
2023-04-22T17:16:14.802Z,100835.34
2023-04-22T17:18:41.170Z,100835.31
2023-04-22T17:21:07.509Z,100828.84
2023-04-22T17:23:35.680Z,100833.09
2023-04-22T17:26:02.143Z,100830.13
2023-04-22T17:28:28.527Z,100832.53
2023-04-22T17:30:54.968Z,100836.56
2023-04-22T17:33:21.386Z,100841.66
2023-04-22T17:35:47.755Z,100846.22
2023-04-22T17:38:14.375Z,100849.50
2023-04-22T17:40:40.946Z,100843.91
2023-04-22T17:43:07.399Z,100851.41
2023-04-22T17:45:33.812Z,100843.06
2023-04-22T17:48:00.270Z,100845.75
2023-04-22T17:50:26.708Z,100845.53
2023-04-22T17:52:53.103Z,100857.63
2023-04-22T17:55:19.601Z,100857.09
2023-04-22T17:57:45.990Z,100860.56
2023-04-22T18:00:14.484Z,100862.72
2023-04-22T18:02:41.519Z,100865.94
2023-04-22T18:05:08.577Z,100868.88
2023-04-22T18:07:35.495Z,100863.53
2023-04-22T18:10:01.829Z,100866.22
2023-04-22T18:12:30.611Z,100871.31
2023-04-22T18:14:57.876Z,100876.94
2023-04-22T18:17:24.358Z,100884.44
2023-04-22T18:19:51.227Z,100885.25
2023-04-22T18:22:18.824Z,100886.31
2023-04-22T18:24:45.601Z,100893.28
2023-04-22T18:27:12.002Z,100900.25
2023-04-22T18:29:38.801Z,100896.22
2023-04-22T18:32:05.593Z,100906.41
2023-04-22T18:34:32.123Z,100909.38
2023-04-22T18:36:58.558Z,100914.22
2023-04-22T18:39:24.972Z,100915.78
2023-04-22T18:41:52.095Z,100914.75
2023-04-22T18:44:19.713Z,100926.53
2023-04-22T18:46:46.269Z,100921.63
2023-04-22T18:49:12.644Z,100924.84
2023-04-22T18:51:41.911Z,100928.88
2023-04-22T18:54:08.598Z,100926.44
2023-04-22T18:56:34.989Z,100937.66
2023-04-22T18:59:01.385Z,100942.19
2023-04-22T19:01:28.309Z,100945.13
2023-04-22T19:03:54.785Z,100952.31
2023-04-22T19:06:21.232Z,100953.38
2023-04-22T19:08:48.714Z,100960.59
2023-04-22T19:11:16.971Z,100960.28
2023-04-22T19:13:44.180Z,100970.72
2023-04-22T19:16:10.946Z,100965.91
2023-04-22T19:18:37.414Z,100974.97
2023-04-22T19:21:04.948Z,100969.09
2023-04-22T19:23:31.510Z,100971.44
2023-04-22T19:25:57.884Z,100970.63
2023-04-22T19:28:24.291Z,100965.81
2023-04-22T19:30:50.987Z,100977.28
2023-04-22T19:33:17.672Z,100976.44
2023-04-22T19:35:44.177Z,100975.59
2023-04-22T19:38:11.091Z,100979.34
2023-04-22T19:40:37.714Z,100985.75
2023-04-22T19:43:04.274Z,100983.34
2023-04-22T19:45:30.614Z,100980.09
2023-04-22T19:47:57.277Z,100978.16
2023-04-22T19:50:23.915Z,100971.47
2023-04-22T19:52:50.914Z,100967.16
2023-04-22T19:55:18.662Z,100971.41
2023-04-22T19:57:46.153Z,100968.44
2023-04-22T20:00:12.960Z,100967.84
2023-04-22T20:02:39.875Z,100980.91
2023-04-22T20:05:07.232Z,100977.38
2023-04-22T20:07:34.772Z,100977.59
2023-04-22T20:10:04.217Z,100979.97
2023-04-22T20:12:30.856Z,100978.34
2023-04-22T20:14:58.502Z,100982.31
2023-04-22T20:17:26.305Z,100983.34
2023-04-22T20:19:54.074Z,100987.88
2023-04-22T20:22:24.742Z,100990.78
2023-04-22T20:25:03.924Z,100980.59
2023-04-22T20:27:31.358Z,100984.88
2023-04-22T20:29:59.139Z,100980.59
2023-04-22T20:32:26.537Z,100977.63
2023-04-22T20:34:54.196Z,100975.19
2023-04-22T20:37:22.096Z,100972.44
2023-04-22T20:39:52.525Z,100968.94
2023-04-22T20:42:20.211Z,100968.66
2023-04-22T20:44:47.002Z,100960.06
2023-04-22T20:47:14.485Z,100950.94
2023-04-22T20:49:42.013Z,100961.88
2023-04-22T20:52:09.704Z,100959.97
2023-04-22T20:54:36.810Z,100958.84
2023-04-22T20:57:05.807Z,100963.63
2023-04-22T20:59:35.848Z,100966.28
2023-04-22T21:02:04.100Z,100963.84
2023-04-22T21:04:32.210Z,100957.13
2023-04-22T21:07:03.918Z,100964.31
2023-04-22T21:09:32.221Z,100966.13
2023-04-22T21:11:58.926Z,100967.13
2023-04-22T21:14:28.504Z,100970.03
2023-04-22T21:17:04.420Z,100968.63
2023-04-22T21:19:34.407Z,100959.25
2023-04-22T21:22:05.632Z,100955.53
2023-04-22T21:24:33.448Z,100950.66
2023-04-22T21:27:01.219Z,100954.91
2023-04-22T21:29:28.851Z,100956.16
2023-04-22T21:32:07.856Z,100956.16
2023-04-22T21:34:34.903Z,100965.47
2023-04-22T21:37:01.716Z,100955.59
2023-04-22T21:39:29.377Z,100955.28
2023-04-22T21:41:55.803Z,100953.97
2023-04-22T21:44:22.156Z,100950.25
2023-04-22T21:46:48.648Z,100950.72
2023-04-22T21:49:15.049Z,100951.75
2023-04-22T21:51:41.502Z,100962.63
2023-04-22T21:54:07.826Z,100965.00
2023-04-22T21:56:34.658Z,100966.03
2023-04-22T21:59:01.034Z,100976.97
2023-04-22T22:01:27.586Z,100977.78
2023-04-22T22:03:54.261Z,100968.41
2023-04-22T22:06:20.898Z,100972.13
2023-04-22T22:08:47.332Z,100970.41
2023-04-22T22:11:27.637Z,100968.50
2023-04-22T22:13:56.618Z,100982.34
2023-04-22T22:16:23.279Z,100972.16
2023-04-22T22:18:50.023Z,100972.38
2023-04-22T22:21:16.372Z,100966.50
2023-04-22T22:23:42.911Z,100973.44
2023-04-22T22:26:09.289Z,100977.97
2023-04-22T22:28:35.637Z,100977.72
2023-04-22T22:31:02.503Z,100981.22
2023-04-22T22:33:29.530Z,100977.50
2023-04-22T22:35:56.286Z,100977.72
2023-04-22T22:38:22.671Z,100971.59
2023-04-22T22:40:49.218Z,100980.16
2023-04-22T22:43:15.572Z,100986.75
2023-04-22T22:45:42.012Z,100976.34
2023-04-22T22:48:08.449Z,100978.97
2023-04-22T22:50:34.864Z,100991.16
2023-04-22T22:53:01.202Z,100999.38
2023-04-22T22:55:27.647Z,100998.59
2023-04-22T22:57:54.002Z,100995.34
2023-04-22T23:00:20.568Z,100995.34
2023-04-22T23:02:47.280Z,100993.25
2023-04-22T23:05:13.802Z,100994.88
2023-04-22T23:07:40.315Z,100998.34
2023-04-22T23:10:07.526Z,100993.00
2023-04-22T23:12:34.379Z,100994.63
2023-04-22T23:15:01.056Z,100994.88
2023-04-22T23:17:27.530Z,101000.47
2023-04-22T23:19:54.786Z,100995.91
2023-04-22T23:22:22.070Z,100996.72
2023-04-22T23:24:48.708Z,100989.53
2023-04-22T23:27:16.136Z,100992.22
2023-04-22T23:29:42.897Z,100988.16
2023-04-22T23:32:10.076Z,100986.56
2023-04-22T23:34:44.288Z,100985.72
2023-04-22T23:37:13.697Z,100985.50
2023-04-22T23:39:41.873Z,100979.59
2023-04-22T23:42:08.312Z,100976.13
2023-04-22T23:44:34.714Z,100959.31
2023-04-22T23:47:01.155Z,100960.38
2023-04-22T23:49:28.776Z,100958.50
2023-04-22T23:51:55.768Z,100954.00
2023-04-22T23:54:22.298Z,100950.50
2023-04-22T23:56:48.939Z,100943.53
2023-04-22T23:59:15.542Z,100932.34
